aviador You're here:

BIRK Decoded Metar

REYKJAVIK in ICELAND
Report Time2018-02-22 08:00:00
UTC Time2018-02-22 08:47:06
Flight Rules vfr VFR
Wind190° at 23 kt
W.Decomp.*RWY 19: 22.2 kt HW 6.0 kt RCW
RWY 24: 18.8 kt HW 13.2 kt LCW
RWY 13: 6.0 kt HW 22.2 kt RCW
W.Rank190° ranks 19
Current wind is above 190° avg. (9.9)
Visibility9999 m
Phenomena:N/A
Clouds:Few 016 Hf
Scattered 036 Hf
Broken 080 Hf
Expected CloudBase > 2,000 ft AGL from Temp-Dew spread
Ceiling8,000 ft
Temp03°C (ISA -12)
Dew Point-2°C (70% RH)
AAT-7.5°C
QNH0984 hPa
Density Alt-135 ft
Elevation200 ft
Report Wrong Elevation
Raw Report
METAR BIRK 220800Z 19023KT 9999 FEW016 SCT036 BKN080 03/M02 Q0984 R19/210168=

Extra information for BIRK:More info

Metar Taf Metar & Taf Last 4 Metars F.Rules Stats Wind Profile Meteogram Temp Stats Airport Information Weather charts Add Link Nearby VenuesMetar ALERT Operation Metar Decoded Social comments